TimeEST,TemperatureF,Dew PointF,Humidity,Sea Level PressureIn,VisibilityMPH,Wind Direction,Wind SpeedMPH,Gust SpeedMPH,PrecipitationIn,Events,Conditions,WindDirDegrees,DateUTC
12:53 AM,23.0,19.9,88,29.91,5.0,Calm,Calm,-,N/A,,Partly Cloudy,0,2012-03-05 05:53:00
1:35 AM,24.8,19.4,80,29.88,9.0,Calm,Calm,-,N/A,,Overcast,0,2012-03-05 06:35:00
1:53 AM,26.1,21.9,84,29.91,10.0,Calm,Calm,-,N/A,,Overcast,0,2012-03-05 06:53:00
2:10 AM,26.6,21.2,80,29.88,10.0,Calm,Calm,-,N/A,,Overcast,0,2012-03-05 07:10:00
2:34 AM,26.6,21.2,80,29.88,10.0,Calm,Calm,-,N/A,,Overcast,0,2012-03-05 07:34:00
2:53 AM,27.0,23.0,85,29.91,10.0,Calm,Calm,-,N/A,,Overcast,0,2012-03-05 07:53:00
3:26 AM,28.4,21.2,74,29.88,10.0,Calm,Calm,-,N/A,,Overcast,0,2012-03-05 08:26:00
3:38 AM,26.6,23.0,86,29.88,9.0,Calm,Calm,-,N/A,,Overcast,0,2012-03-05 08:38:00
3:53 AM,28.0,23.0,81,29.91,7.0,Calm,Calm,-,N/A,,Overcast,0,2012-03-05 08:53:00
4:10 AM,28.4,23.0,80,29.89,6.0,Calm,Calm,-,0.00,Snow,Light Snow,0,2012-03-05 09:10:00
4:41 AM,26.6,23.0,86,29.90,9.0,Calm,Calm,-,0.00,,Overcast,0,2012-03-05 09:41:00
4:53 AM,28.0,23.0,81,29.94,10.0,Calm,Calm,-,0.00,,Overcast,0,2012-03-05 09:53:00
5:53 AM,28.0,23.0,81,29.97,5.0,Calm,Calm,-,0.00,Snow,Light Snow,0,2012-03-05 10:53:00
6:08 AM,28.4,23.0,80,29.95,3.0,Calm,Calm,-,0.00,Snow,Light Snow,0,2012-03-05 11:08:00
6:15 AM,28.4,23.0,80,29.95,2.5,WNW,3.5,-,0.00,Snow,Light Snow,290,2012-03-05 11:15:00
6:31 AM,28.4,23.0,80,29.96,2.5,WNW,4.6,-,0.00,Snow,Light Snow,290,2012-03-05 11:31:00
6:45 AM,28.4,23.0,80,29.97,3.0,West,3.5,-,0.00,Snow,Light Snow,280,2012-03-05 11:45:00
6:53 AM,28.0,23.0,81,30.01,4.0,West,4.6,-,0.00,Snow,Light Snow,280,2012-03-05 11:53:00
7:12 AM,28.4,24.8,86,29.99,1.8,WNW,3.5,-,0.00,Snow,Light Snow,300,2012-03-05 12:12:00
7:19 AM,28.4,24.8,86,30.00,1.5,NW,3.5,-,0.00,Snow,Light Snow,320,2012-03-05 12:19:00
7:30 AM,28.4,23.0,80,30.01,2.0,North,12.7,16.1,0.00,Snow,Light Snow,360,2012-03-05 12:30:00
7:36 AM,26.6,21.2,80,30.02,1.8,North,9.2,-,0.00,Snow,Light Snow,10,2012-03-05 12:36:00
7:53 AM,26.1,19.9,78,30.07,1.8,North,9.2,-,0.01,Snow,Light Snow,360,2012-03-05 12:53:00
8:01 AM,26.6,19.4,74,30.05,1.8,North,10.4,-,0.00,Snow,Light Snow,10,2012-03-05 13:01:00
8:15 AM,26.6,19.4,74,30.06,2.0,North,8.1,-,0.00,Snow,Light Snow,350,2012-03-05 13:15:00
8:25 AM,26.6,21.2,80,30.08,1.5,North,5.8,-,0.00,Snow,Light Snow,350,2012-03-05 13:25:00
8:53 AM,26.1,19.9,78,30.14,1.8,North,5.8,-,0.00,Snow,Light Snow,360,2012-03-05 13:53:00
9:01 AM,26.6,19.4,74,30.11,2.0,North,6.9,-,0.00,Snow,Light Snow,360,2012-03-05 14:01:00
9:11 AM,26.6,19.4,74,30.11,3.0,North,5.8,-,0.00,Snow,Light Snow,350,2012-03-05 14:11:00
9:18 AM,26.6,19.4,74,30.11,3.0,North,6.9,-,0.00,Snow,Light Snow,10,2012-03-05 14:18:00
9:45 AM,26.6,17.6,69,30.14,9.0,North,12.7,20.7,0.00,,Overcast,360,2012-03-05 14:45:00
9:53 AM,27.0,17.1,66,30.18,10.0,North,9.2,18.4,0.00,,Mostly Cloudy,360,2012-03-05 14:53:00
10:53 AM,28.9,17.1,61,30.22,10.0,NW,12.7,16.1,N/A,,Mostly Cloudy,310,2012-03-05 15:53:00
11:38 AM,28.4,15.8,59,30.21,10.0,NW,12.7,17.3,N/A,,Overcast,320,2012-03-05 16:38:00
11:53 AM,28.9,15.1,56,30.26,10.0,NNW,11.5,21.9,N/A,,Overcast,330,2012-03-05 16:53:00
12:53 PM,28.9,16.0,58,30.28,10.0,NW,11.5,-,N/A,,Overcast,320,2012-03-05 17:53:00
1:53 PM,30.0,16.0,56,30.30,10.0,NW,5.8,-,N/A,,Overcast,320,2012-03-05 18:53:00
2:53 PM,30.0,19.0,64,30.33,5.0,WNW,8.1,-,0.00,Snow,Light Snow,290,2012-03-05 19:53:00
3:02 PM,30.2,19.4,64,30.30,7.0,WNW,6.9,-,0.00,,Overcast,290,2012-03-05 20:02:00
3:39 PM,28.4,21.2,74,30.32,1.8,West,10.4,18.4,0.00,Snow,Light Snow,270,2012-03-05 20:39:00
3:46 PM,28.4,21.2,74,30.32,1.2,West,10.4,-,0.00,Snow,Light Snow,270,2012-03-05 20:46:00
3:53 PM,28.9,21.0,72,30.36,2.5,West,9.2,-,0.00,Snow,Light Snow,280,2012-03-05 20:53:00
3:56 PM,30.2,21.2,69,30.32,6.0,WNW,5.8,-,0.00,Snow,Light Snow,290,2012-03-05 20:56:00
4:06 PM,30.2,21.2,69,30.32,9.0,WNW,9.2,-,0.00,,Overcast,300,2012-03-05 21:06:00
4:13 PM,30.2,17.6,60,30.32,10.0,WNW,9.2,-,0.00,,Overcast,300,2012-03-05 21:13:00
4:53 PM,30.0,17.1,59,30.39,10.0,WNW,8.1,-,0.00,,Overcast,290,2012-03-05 21:53:00
5:53 PM,28.9,12.9,51,30.42,10.0,West,8.1,17.3,N/A,,Overcast,280,2012-03-05 22:53:00
6:53 PM,28.0,12.9,53,30.45,10.0,WNW,8.1,-,N/A,,Scattered Clouds,290,2012-03-05 23:53:00
7:53 PM,27.0,12.9,56,30.47,10.0,Calm,Calm,-,N/A,,Clear,0,2012-03-06 00:53:00
8:53 PM,25.0,14.0,63,30.49,10.0,Calm,Calm,-,N/A,,Partly Cloudy,0,2012-03-06 01:53:00
9:53 PM,21.9,15.1,75,30.50,10.0,Calm,Calm,-,N/A,,Clear,0,2012-03-06 02:53:00
10:53 PM,21.0,15.1,78,30.51,10.0,Calm,Calm,-,N/A,,Clear,0,2012-03-06 03:53:00
11:53 PM,21.0,15.1,78,30.51,10.0,Calm,Calm,-,N/A,,Clear,0,2012-03-06 04:53:00